createdAt,value
2019-01-20T00:00:02.206Z,-7.47
2019-01-20T00:01:02.183Z,-7.54
2019-01-20T00:02:02.168Z,-7.38
2019-01-20T00:03:02.151Z,-7.38
2019-01-20T00:04:02.136Z,-7.38
2019-01-20T00:05:02.178Z,-7.38
2019-01-20T00:06:02.105Z,-7.45
2019-01-20T00:07:02.088Z,-7.49
2019-01-20T00:08:02.078Z,-7.56
2019-01-20T00:09:02.056Z,-7.54
2019-01-20T00:10:02.041Z,-7.59
2019-01-20T00:11:02.026Z,-7.56
2019-01-20T00:12:02.007Z,-7.51
2019-01-20T00:13:01.994Z,-7.49
2019-01-20T00:14:01.989Z,-7.60
2019-01-20T00:15:01.963Z,-7.62
2019-01-20T00:16:01.948Z,-7.62
2019-01-20T00:17:01.930Z,-7.60
2019-01-20T00:18:01.914Z,-7.63
2019-01-20T00:19:01.906Z,-7.70
2019-01-20T00:20:01.883Z,-7.80
2019-01-20T00:21:01.867Z,-7.95
2019-01-20T00:22:01.851Z,-7.90
2019-01-20T00:23:01.835Z,-7.90
2019-01-20T00:24:01.820Z,-7.88
2019-01-20T00:25:01.825Z,-7.88
2019-01-20T00:26:01.785Z,-7.90
2019-01-20T00:27:01.778Z,-7.87
2019-01-20T00:28:01.755Z,-7.74
2019-01-20T00:29:01.739Z,-7.80
2019-01-20T00:30:01.725Z,-7.86
2019-01-20T00:31:01.713Z,-7.74
2019-01-20T00:32:01.686Z,-7.80
2019-01-20T00:33:01.673Z,-7.76
2019-01-20T00:34:01.656Z,-7.76
2019-01-20T00:35:01.642Z,-7.65
2019-01-20T00:36:01.627Z,-7.62
2019-01-20T00:37:01.608Z,-7.62
2019-01-20T00:38:01.596Z,-7.66
2019-01-20T00:39:01.578Z,-7.66
2019-01-20T00:40:01.564Z,-7.65
2019-01-20T00:41:01.545Z,-7.63
2019-01-20T00:42:01.529Z,-7.60
2019-01-20T00:43:01.511Z,-7.68
2019-01-20T00:44:01.505Z,-7.66
2019-01-20T00:45:02.742Z,-7.62
2019-01-20T00:46:01.463Z,-7.69
2019-01-20T00:47:01.449Z,-7.79
2019-01-20T00:48:01.441Z,-7.76
2019-01-20T00:49:01.437Z,-7.81
2019-01-20T00:50:01.404Z,-7.80
2019-01-20T00:51:01.385Z,-7.83
2019-01-20T00:52:02.337Z,-7.62
2019-01-20T00:53:01.350Z,-7.70
2019-01-20T00:54:01.338Z,-7.70
2019-01-20T00:55:01.321Z,-7.81
2019-01-20T00:56:01.302Z,-7.87
2019-01-20T00:57:01.291Z,-7.90
2019-01-20T00:58:01.274Z,-7.94
2019-01-20T00:59:01.256Z,-7.95
2019-01-20T01:00:01.237Z,-7.97
2019-01-20T01:01:01.222Z,-8.13
2019-01-20T01:02:01.206Z,-8.21
2019-01-20T01:03:01.187Z,-8.23
2019-01-20T01:04:01.173Z,-8.29
2019-01-20T01:05:01.157Z,-8.31
2019-01-20T01:06:01.140Z,-8.31
2019-01-20T01:07:01.124Z,-8.44
2019-01-20T01:08:01.108Z,-8.38
2019-01-20T01:09:01.093Z,-8.37
2019-01-20T01:10:01.076Z,-8.42
2019-01-20T01:11:01.061Z,-8.29
2019-01-20T01:12:01.043Z,-8.24
2019-01-20T01:13:01.027Z,-8.16
2019-01-20T01:14:01.007Z,-8.17
2019-01-20T01:15:00.993Z,-8.08
2019-01-20T01:16:00.980Z,-8.09
2019-01-20T01:17:00.959Z,-8.19
2019-01-20T01:18:00.945Z,-8.17
2019-01-20T01:19:00.927Z,-8.17
2019-01-20T01:20:00.912Z,-8.14
2019-01-20T01:21:00.895Z,-8.14
2019-01-20T01:22:00.880Z,-8.13
2019-01-20T01:23:00.860Z,-8.16
2019-01-20T01:24:00.846Z,-8.03
2019-01-20T01:25:00.832Z,-7.90
2019-01-20T01:26:00.813Z,-7.97
2019-01-20T01:27:00.797Z,-7.84
2019-01-20T01:28:00.783Z,-7.87
2019-01-20T01:29:00.764Z,-7.87
2019-01-20T01:30:00.748Z,-7.87
2019-01-20T01:31:00.730Z,-7.88
2019-01-20T01:32:00.726Z,-7.87
2019-01-20T01:33:00.699Z,-7.94
2019-01-20T01:34:00.677Z,-7.90
2019-01-20T01:35:00.662Z,-8.14
2019-01-20T01:36:00.659Z,-8.10
2019-01-20T01:37:00.630Z,-8.09
2019-01-20T01:38:00.614Z,-8.14
2019-01-20T01:39:00.596Z,-8.16
2019-01-20T01:40:00.581Z,-8.16
2019-01-20T01:41:00.564Z,-8.14
2019-01-20T01:42:00.614Z,-8.17
2019-01-20T01:43:00.532Z,-8.17
2019-01-20T01:44:00.516Z,-8.16
2019-01-20T01:45:00.500Z,-8.31
2019-01-20T01:46:00.485Z,-8.29
2019-01-20T01:47:00.465Z,-8.14
2019-01-20T01:48:00.449Z,-8.10
2019-01-20T01:49:00.434Z,-8.13
2019-01-20T01:50:00.417Z,-8.13
2019-01-20T01:51:00.398Z,-8.17
2019-01-20T01:52:00.385Z,-8.19
2019-01-20T01:53:00.367Z,-8.20
2019-01-20T01:54:00.351Z,-8.17
2019-01-20T01:55:00.353Z,-8.08
2019-01-20T01:56:00.315Z,-8.05
2019-01-20T01:57:00.302Z,-8.03
2019-01-20T01:58:00.281Z,-7.91
2019-01-20T01:59:00.268Z,-7.90
2019-01-20T02:00:00.250Z,-7.90
2019-01-20T02:01:00.235Z,-7.90
2019-01-20T02:02:00.219Z,-7.88
2019-01-20T02:03:00.212Z,-7.81
2019-01-20T02:04:00.201Z,-7.91
2019-01-20T02:05:00.206Z,-7.95
2019-01-20T02:06:00.152Z,-7.81
2019-01-20T02:07:00.134Z,-7.81
2019-01-20T02:08:00.122Z,-7.80
2019-01-20T02:09:00.104Z,-7.86
2019-01-20T02:10:00.097Z,-7.81
2019-01-20T02:11:00.068Z,-7.95
2019-01-20T02:12:00.055Z,-8.13
2019-01-20T02:13:00.036Z,-8.14
2019-01-20T02:14:00.020Z,-8.19
2019-01-20T02:15:00.002Z,-8.32
2019-01-20T02:15:59.985Z,-8.34
2019-01-20T02:16:59.977Z,-8.32
2019-01-20T02:17:59.956Z,-8.47
2019-01-20T02:18:59.941Z,-8.34
2019-01-20T02:19:59.921Z,-8.38
2019-01-20T02:20:59.920Z,-8.47
2019-01-20T02:21:59.885Z,-8.44
2019-01-20T02:22:59.870Z,-8.50
2019-01-20T02:23:59.854Z,-8.44
2019-01-20T02:24:59.839Z,-8.45
2019-01-20T02:25:59.820Z,-8.44
2019-01-20T02:26:59.804Z,-8.47
2019-01-20T02:27:59.803Z,-8.60
2019-01-20T02:28:59.771Z,-8.59
2019-01-20T02:29:59.753Z,-8.66
2019-01-20T02:30:59.739Z,-8.68
2019-01-20T02:31:59.719Z,-8.71
2019-01-20T02:32:59.708Z,-8.74
2019-01-20T02:33:59.686Z,-8.60
2019-01-20T02:34:59.670Z,-8.56
2019-01-20T02:35:59.654Z,-8.52
2019-01-20T02:36:59.643Z,-8.55
2019-01-20T02:37:59.633Z,-8.42
2019-01-20T02:38:59.605Z,-8.48
2019-01-20T02:39:59.587Z,-8.37
2019-01-20T02:40:59.571Z,-8.42
2019-01-20T02:41:59.556Z,-8.42
2019-01-20T02:42:59.546Z,-8.32
2019-01-20T02:43:59.520Z,-8.26
2019-01-20T02:44:59.504Z,-8.29
2019-01-20T02:45:59.492Z,-8.32
2019-01-20T02:46:59.475Z,-8.27
2019-01-20T02:47:59.453Z,-8.21
2019-01-20T02:48:59.437Z,-8.32
2019-01-20T02:49:59.420Z,-8.23
2019-01-20T02:50:59.398Z,-8.31
2019-01-20T02:51:59.387Z,-8.35
2019-01-20T02:52:59.371Z,-8.31
2019-01-20T02:53:59.353Z,-8.35
2019-01-20T02:54:59.334Z,-8.50
2019-01-20T02:55:59.324Z,-8.45
2019-01-20T02:56:59.302Z,-8.48
2019-01-20T02:57:59.286Z,-8.53
2019-01-20T02:58:59.268Z,-8.55
2019-01-20T02:59:59.253Z,-8.48
2019-01-20T03:00:59.255Z,-8.39
2019-01-20T03:01:59.219Z,-8.27
2019-01-20T03:02:59.204Z,-8.26
2019-01-20T03:03:59.186Z,-8.32
2019-01-20T03:04:59.168Z,-8.23
2019-01-20T03:05:59.151Z,-8.31
2019-01-20T03:06:59.137Z,-8.31
2019-01-20T03:07:59.117Z,-8.27
2019-01-20T03:08:59.100Z,-8.31
2019-01-20T03:09:59.085Z,-8.37
2019-01-20T03:10:59.072Z,-8.37
2019-01-20T03:12:03.415Z,-8.42
2019-01-20T03:12:59.032Z,-8.55
2019-01-20T03:13:59.022Z,-8.58
2019-01-20T03:14:58.998Z,-8.48
2019-01-20T03:15:58.992Z,-8.39
2019-01-20T03:16:58.963Z,-8.27
2019-01-20T03:17:58.949Z,-8.26
2019-01-20T03:18:58.930Z,-8.29
2019-01-20T03:19:58.915Z,-8.29
2019-01-20T03:20:58.895Z,-8.27
2019-01-20T03:21:58.878Z,-8.31
2019-01-20T03:22:58.862Z,-8.32
2019-01-20T03:23:58.846Z,-8.16
2019-01-20T03:24:58.829Z,-8.16
2019-01-20T03:25:58.811Z,-8.02
2019-01-20T03:26:58.795Z,-8.02
2019-01-20T03:27:58.780Z,-8.02
2019-01-20T03:28:58.762Z,-8.09
2019-01-20T03:29:58.745Z,-8.17
2019-01-20T03:30:58.728Z,-8.27
2019-01-20T03:31:58.726Z,-8.34
2019-01-20T03:32:58.692Z,-8.35
2019-01-20T03:33:58.677Z,-8.32
2019-01-20T03:34:58.665Z,-8.39
2019-01-20T03:35:58.644Z,-8.37
2019-01-20T03:36:58.626Z,-8.48
2019-01-20T03:37:58.608Z,-8.55
2019-01-20T03:38:58.600Z,-8.53
2019-01-20T03:39:58.578Z,-8.58
2019-01-20T03:40:58.559Z,-8.58
2019-01-20T03:41:58.543Z,-8.55
2019-01-20T03:42:58.525Z,-8.58
2019-01-20T03:43:58.507Z,-8.52
2019-01-20T03:44:58.488Z,-8.53
2019-01-20T03:45:58.474Z,-8.50
2019-01-20T03:46:58.458Z,-8.47
2019-01-20T03:47:58.446Z,-8.41
2019-01-20T03:48:58.424Z,-8.38
2019-01-20T03:49:58.406Z,-8.41
2019-01-20T03:50:58.390Z,-8.27
2019-01-20T03:51:58.375Z,-8.27
2019-01-20T03:52:58.357Z,-8.29
2019-01-20T03:53:58.338Z,-8.23
2019-01-20T03:54:58.322Z,-8.24
2019-01-20T03:55:58.322Z,-8.16
2019-01-20T03:56:58.289Z,-8.13
2019-01-20T03:57:58.274Z,-8.20
2019-01-20T03:58:58.253Z,-8.29
2019-01-20T03:59:58.235Z,-8.34
2019-01-20T04:00:58.221Z,-8.52
2019-01-20T04:01:58.201Z,-8.56
2019-01-20T04:02:58.186Z,-8.58
2019-01-20T04:03:58.171Z,-8.56
2019-01-20T04:04:58.154Z,-8.58
2019-01-20T04:05:58.138Z,-8.70
2019-01-20T04:06:58.119Z,-8.58
2019-01-20T04:07:58.101Z,-8.59
2019-01-20T04:08:58.085Z,-8.59
2019-01-20T04:09:58.069Z,-8.44
2019-01-20T04:10:58.050Z,-8.52
2019-01-20T04:11:58.037Z,-8.44
2019-01-20T04:12:58.021Z,-8.47
2019-01-20T04:13:58.001Z,-8.47
2019-01-20T04:14:57.983Z,-8.47
2019-01-20T04:15:57.965Z,-8.53
2019-01-20T04:16:57.952Z,-8.53
2019-01-20T04:17:57.937Z,-8.55
2019-01-20T04:18:57.913Z,-8.48
2019-01-20T04:19:57.898Z,-8.42
2019-01-20T04:20:57.881Z,-8.55
2019-01-20T04:21:57.863Z,-8.53
2019-01-20T04:22:57.848Z,-8.45
2019-01-20T04:23:57.831Z,-8.55
2019-01-20T04:24:57.814Z,-8.53
2019-01-20T04:25:57.812Z,-8.48
2019-01-20T04:26:57.784Z,-8.66
2019-01-20T04:27:57.768Z,-8.80
2019-01-20T04:28:57.748Z,-8.80
2019-01-20T04:29:57.727Z,-8.81
2019-01-20T04:30:57.709Z,-8.81
2019-01-20T04:31:57.694Z,-8.91
2019-01-20T04:32:57.678Z,-8.94
2019-01-20T04:33:57.660Z,-8.92
2019-01-20T04:34:57.641Z,-8.86
2019-01-20T04:35:57.634Z,-8.95
2019-01-20T04:36:57.612Z,-8.94
2019-01-20T04:37:57.592Z,-8.95
2019-01-20T04:38:57.573Z,-8.86
2019-01-20T04:39:57.556Z,-8.70
2019-01-20T04:40:57.547Z,-8.73
2019-01-20T04:41:57.526Z,-8.59
2019-01-20T04:42:57.524Z,-8.55
2019-01-20T04:43:57.488Z,-8.50
2019-01-20T04:44:57.474Z,-8.38
2019-01-20T04:45:57.455Z,-8.37
2019-01-20T04:46:57.447Z,-8.34
2019-01-20T04:47:57.431Z,-8.35
2019-01-20T04:48:57.407Z,-8.27
2019-01-20T04:49:57.389Z,-8.26
2019-01-20T04:50:57.372Z,-8.27
2019-01-20T04:51:57.354Z,-8.29
2019-01-20T04:52:57.336Z,-8.23
2019-01-20T04:53:57.318Z,-8.29
2019-01-20T04:54:57.301Z,-8.37
2019-01-20T04:55:57.285Z,-8.38
2019-01-20T04:56:57.267Z,-8.47
2019-01-20T04:57:57.253Z,-8.37
2019-01-20T04:58:57.234Z,-8.34
2019-01-20T04:59:57.250Z,-8.29
2019-01-20T05:00:57.214Z,-8.26
2019-01-20T05:01:57.186Z,-8.19
2019-01-20T05:02:57.167Z,-8.24
2019-01-20T05:03:57.152Z,-8.27
2019-01-20T05:04:57.134Z,-8.31
2019-01-20T05:05:57.114Z,-8.31
2019-01-20T05:06:57.097Z,-8.37
2019-01-20T05:07:57.081Z,-8.35
2019-01-20T05:08:57.074Z,-8.35
2019-01-20T05:09:57.045Z,-8.34
2019-01-20T05:10:57.030Z,-8.32
2019-01-20T05:11:57.011Z,-8.32
2019-01-20T05:12:56.997Z,-8.34
2019-01-20T05:13:57.016Z,-8.34
2019-01-20T05:14:56.960Z,-8.29
2019-01-20T05:15:56.944Z,-8.24
2019-01-20T05:16:56.933Z,-8.23
2019-01-20T05:17:56.924Z,-8.27
2019-01-20T05:18:56.896Z,-8.21
2019-01-20T05:19:56.879Z,-8.27
2019-01-20T05:20:56.859Z,-8.32
2019-01-20T05:21:56.844Z,-8.23
2019-01-20T05:22:56.825Z,-8.32
2019-01-20T05:23:56.813Z,-8.32
2019-01-20T05:24:56.792Z,-8.26
2019-01-20T05:25:56.773Z,-8.27
2019-01-20T05:26:56.758Z,-8.32
2019-01-20T05:27:56.743Z,-8.20
2019-01-20T05:28:56.747Z,-8.19
2019-01-20T05:29:56.721Z,-8.17
2019-01-20T05:30:56.689Z,-8.06
2019-01-20T05:31:56.677Z,-8.02
2019-01-20T05:32:56.657Z,-7.88
2019-01-20T05:33:56.648Z,-7.88
2019-01-20T05:34:57.073Z,-7.98
2019-01-20T05:35:56.666Z,-8.09
2019-01-20T05:36:56.604Z,-8.09
2019-01-20T05:37:56.581Z,-8.17
2019-01-20T05:38:56.552Z,-8.27
2019-01-20T05:39:56.564Z,-8.29
2019-01-20T05:40:56.518Z,-8.24
2019-01-20T05:41:56.510Z,-8.29
2019-01-20T05:42:56.487Z,-8.31
2019-01-20T05:43:56.471Z,-8.29
2019-01-20T05:44:56.455Z,-8.37
2019-01-20T05:45:56.434Z,-8.42
2019-01-20T05:46:56.422Z,-8.45
2019-01-20T05:47:56.402Z,-8.58
2019-01-20T05:48:56.390Z,-8.73
2019-01-20T05:49:56.367Z,-8.78
2019-01-20T05:50:56.347Z,-8.80
2019-01-20T05:51:56.335Z,-8.83
2019-01-20T05:52:56.324Z,-8.95
2019-01-20T05:53:56.300Z,-8.91
2019-01-20T05:54:56.282Z,-8.80
2019-01-20T05:55:56.266Z,-8.80
2019-01-20T05:56:56.249Z,-8.86
2019-01-20T05:57:56.233Z,-8.83
2019-01-20T05:58:56.215Z,-8.94
2019-01-20T05:59:56.296Z,-8.97
2019-01-20T06:00:56.182Z,-8.94
2019-01-20T06:01:56.162Z,-8.92
2019-01-20T06:02:56.146Z,-8.92
2019-01-20T06:03:56.126Z,-8.73
2019-01-20T06:04:56.137Z,-8.62
2019-01-20T06:05:56.097Z,-8.58
2019-01-20T06:06:56.076Z,-8.58
2019-01-20T06:07:56.059Z,-8.63
2019-01-20T06:08:56.044Z,-8.53
2019-01-20T06:09:56.051Z,-8.62
2019-01-20T06:10:56.015Z,-8.59
2019-01-20T06:11:55.998Z,-8.66
2019-01-20T06:12:55.977Z,-8.70
2019-01-20T06:13:55.954Z,-8.63
2019-01-20T06:14:55.940Z,-8.58
2019-01-20T06:15:55.922Z,-8.60
2019-01-20T06:16:55.905Z,-8.53
2019-01-20T06:17:55.891Z,-8.58
2019-01-20T06:18:55.870Z,-8.48
2019-01-20T06:19:55.855Z,-8.45
2019-01-20T06:20:55.836Z,-8.55
2019-01-20T06:21:55.819Z,-8.48
2019-01-20T06:22:55.801Z,-8.42
2019-01-20T06:23:55.785Z,-8.42
2019-01-20T06:24:55.767Z,-8.45
2019-01-20T06:25:55.755Z,-8.45
2019-01-20T06:26:55.734Z,-8.56
2019-01-20T06:27:55.719Z,-8.62
2019-01-20T06:28:55.696Z,-8.74
2019-01-20T06:29:55.681Z,-8.81
2019-01-20T06:30:55.664Z,-8.83
2019-01-20T06:31:55.649Z,-8.94
2019-01-20T06:32:55.638Z,-8.95
2019-01-20T06:33:55.614Z,-8.76
2019-01-20T06:34:55.598Z,-8.65
2019-01-20T06:35:55.598Z,-8.65
2019-01-20T06:36:55.564Z,-8.52
2019-01-20T06:37:55.547Z,-8.50
2019-01-20T06:38:55.530Z,-8.55
2019-01-20T06:39:55.525Z,-8.48
2019-01-20T06:40:56.925Z,-8.52
2019-01-20T06:41:55.477Z,-8.44
2019-01-20T06:43:01.870Z,-8.52
2019-01-20T06:43:55.444Z,-8.59
2019-01-20T06:44:55.430Z,-8.62
2019-01-20T06:45:55.407Z,-8.71
2019-01-20T06:46:55.392Z,-8.70
2019-01-20T06:47:55.372Z,-8.66
2019-01-20T06:48:55.355Z,-8.68
2019-01-20T06:49:55.417Z,-8.81
2019-01-20T06:50:55.320Z,-8.83
2019-01-20T06:51:55.303Z,-8.97
2019-01-20T06:52:55.289Z,-8.95
2019-01-20T06:53:55.273Z,-8.92
2019-01-20T06:54:55.263Z,-8.81
2019-01-20T06:55:55.238Z,-8.81
2019-01-20T06:56:55.222Z,-8.81
2019-01-20T06:57:55.204Z,-8.94
2019-01-20T06:58:55.181Z,-8.89
2019-01-20T06:59:55.197Z,-8.94
2019-01-20T07:00:55.161Z,-8.95
2019-01-20T07:01:55.136Z,-8.98
2019-01-20T07:02:55.116Z,-9.02
2019-01-20T07:03:55.098Z,-8.98
2019-01-20T07:04:55.080Z,-9.06
2019-01-20T07:05:55.064Z,-9.13
2019-01-20T07:06:55.047Z,-9.18
2019-01-20T07:07:55.030Z,-9.16
2019-01-20T07:08:55.013Z,-9.18
2019-01-20T07:09:54.995Z,-9.20
2019-01-20T07:10:54.980Z,-9.06
2019-01-20T07:11:54.969Z,-8.97
2019-01-20T07:12:54.943Z,-8.95
2019-01-20T07:13:54.927Z,-8.88
2019-01-20T07:14:54.909Z,-8.84
2019-01-20T07:15:54.905Z,-8.74
2019-01-20T07:16:54.875Z,-8.73
2019-01-20T07:17:54.859Z,-8.63
2019-01-20T07:18:54.842Z,-8.62
2019-01-20T07:19:54.824Z,-8.70
2019-01-20T07:20:54.821Z,-8.59
2019-01-20T07:21:54.802Z,-8.60
2019-01-20T07:22:54.771Z,-8.55
2019-01-20T07:23:54.757Z,-8.45
2019-01-20T07:24:54.736Z,-8.55
2019-01-20T07:25:54.720Z,-8.41
2019-01-20T07:26:54.701Z,-8.38
2019-01-20T07:27:54.688Z,-8.35
2019-01-20T07:28:54.669Z,-8.37
2019-01-20T07:29:54.653Z,-8.44
2019-01-20T07:30:54.638Z,-8.42
2019-01-20T07:31:54.616Z,-8.48
2019-01-20T07:32:54.598Z,-8.50
2019-01-20T07:33:54.581Z,-8.47
2019-01-20T07:34:54.564Z,-8.48
2019-01-20T07:35:54.549Z,-8.42
2019-01-20T07:36:54.533Z,-8.56
2019-01-20T07:37:54.531Z,-8.60
2019-01-20T07:38:54.497Z,-8.58
2019-01-20T07:39:54.480Z,-8.71
2019-01-20T07:40:54.463Z,-8.60
2019-01-20T07:41:54.445Z,-8.59
2019-01-20T07:42:54.435Z,-8.53
2019-01-20T07:43:54.412Z,-8.45
2019-01-20T07:44:54.395Z,-8.52
2019-01-20T07:45:54.387Z,-8.44
2019-01-20T07:46:54.360Z,-8.34
2019-01-20T07:47:54.457Z,-8.29
2019-01-20T07:48:54.327Z,-8.34
2019-01-20T07:49:54.310Z,-8.31
2019-01-20T07:50:54.293Z,-8.34
2019-01-20T07:51:54.418Z,-8.34
2019-01-20T07:52:54.260Z,-8.37
2019-01-20T07:53:54.249Z,-8.37
2019-01-20T07:54:54.281Z,-8.39
2019-01-20T07:55:54.213Z,-8.37
2019-01-20T07:56:54.216Z,-8.37
2019-01-20T07:57:54.177Z,-8.32
2019-01-20T07:58:54.157Z,-8.32
2019-01-20T07:59:54.143Z,-8.27
2019-01-20T08:00:54.125Z,-8.34
2019-01-20T08:01:54.110Z,-8.16
2019-01-20T08:02:54.091Z,-8.09
2019-01-20T08:03:54.075Z,-8.09
2019-01-20T08:04:54.063Z,-8.08
2019-01-20T08:05:54.042Z,-7.98
2019-01-20T08:06:54.025Z,-8.02
2019-01-20T08:07:54.007Z,-7.90
2019-01-20T08:08:53.992Z,-7.91
2019-01-20T08:09:53.978Z,-7.91
2019-01-20T08:10:53.966Z,-7.94
2019-01-20T08:11:53.954Z,-7.95
2019-01-20T08:12:53.928Z,-7.86
2019-01-20T08:13:53.911Z,-7.80
2019-01-20T08:14:53.895Z,-7.86
2019-01-20T08:15:53.882Z,-7.83
2019-01-20T08:16:53.861Z,-7.79
2019-01-20T08:17:53.846Z,-7.68
2019-01-20T08:18:53.827Z,-7.66
2019-01-20T08:19:53.811Z,-7.56
2019-01-20T08:20:53.797Z,-7.48
2019-01-20T08:21:53.780Z,-7.58
2019-01-20T08:22:53.763Z,-7.48
2019-01-20T08:23:53.746Z,-7.52
2019-01-20T08:24:53.748Z,-7.37
2019-01-20T08:25:53.715Z,-7.39
2019-01-20T08:26:53.699Z,-7.37
2019-01-20T08:27:53.682Z,-7.26
2019-01-20T08:28:53.666Z,-7.30
2019-01-20T08:29:53.651Z,-7.16
2019-01-20T08:30:53.639Z,-7.21
2019-01-20T08:31:53.622Z,-7.16
2019-01-20T08:32:53.600Z,-7.08
2019-01-20T08:33:53.584Z,-6.97
2019-01-20T08:34:53.567Z,-6.99
2019-01-20T08:35:53.559Z,-6.94
2019-01-20T08:36:53.538Z,-6.87
2019-01-20T08:37:53.524Z,-6.91
2019-01-20T08:38:53.506Z,-6.88
2019-01-20T08:39:53.490Z,-6.76
2019-01-20T08:40:53.476Z,-6.71
2019-01-20T08:41:53.459Z,-6.64
2019-01-20T08:42:53.443Z,-6.48
2019-01-20T08:43:53.431Z,-6.40
2019-01-20T08:44:53.414Z,-6.19
2019-01-20T08:45:53.401Z,-6.13
2019-01-20T08:46:53.382Z,-5.88
2019-01-20T08:47:53.367Z,-5.83
2019-01-20T08:48:53.350Z,-5.91
2019-01-20T08:49:53.336Z,-5.79
2019-01-20T08:50:53.318Z,-5.65
2019-01-20T08:51:53.305Z,-5.00
2019-01-20T08:52:53.291Z,-4.22
2019-01-20T08:53:53.276Z,-3.39
2019-01-20T08:54:53.260Z,-2.76
2019-01-20T08:55:53.243Z,-2.18
2019-01-20T08:56:53.233Z,-1.63
2019-01-20T08:57:53.215Z,-1.25
2019-01-20T08:58:53.216Z,-0.94
2019-01-20T08:59:53.190Z,-0.91
2019-01-20T09:00:53.175Z,-0.80
2019-01-20T09:01:53.160Z,-0.91
2019-01-20T09:02:53.150Z,-0.80
2019-01-20T09:03:53.137Z,-0.87
2019-01-20T09:04:53.124Z,-1.05
2019-01-20T09:05:53.115Z,-1.10
2019-01-20T09:06:53.101Z,-1.07
2019-01-20T09:07:53.094Z,-0.78
2019-01-20T09:08:53.094Z,-0.41
2019-01-20T09:09:53.074Z,-0.29
2019-01-20T09:10:53.069Z,-0.24
2019-01-20T09:11:53.053Z,-0.37
2019-01-20T09:12:53.044Z,-0.27
2019-01-20T09:13:53.038Z,-0.33
2019-01-20T09:14:53.035Z,0.09
2019-01-20T09:15:53.025Z,0.43
2019-01-20T09:16:53.025Z,1.14
2019-01-20T09:17:53.011Z,1.69
2019-01-20T09:18:53.004Z,2.46
2019-01-20T09:19:52.997Z,3.03
2019-01-20T09:20:52.995Z,3.67
2019-01-20T09:21:52.994Z,4.15
2019-01-20T09:22:52.988Z,4.19
2019-01-20T09:23:52.984Z,4.34
2019-01-20T09:24:52.980Z,4.21
2019-01-20T09:25:52.980Z,4.01
2019-01-20T09:26:52.974Z,4.28
2019-01-20T09:27:52.974Z,4.51
2019-01-20T09:28:52.972Z,4.69
2019-01-20T09:29:52.966Z,4.99
2019-01-20T09:30:53.046Z,5.02
2019-01-20T09:31:53.037Z,4.95
2019-01-20T09:32:52.966Z,4.99
2019-01-20T09:33:52.962Z,5.12
2019-01-20T09:34:52.958Z,5.27
2019-01-20T09:35:52.958Z,5.78
2019-01-20T09:36:52.956Z,5.98
2019-01-20T09:37:52.960Z,6.43
2019-01-20T09:38:52.955Z,6.36
2019-01-20T09:39:52.956Z,6.48
2019-01-20T09:40:52.956Z,6.79
2019-01-20T09:41:52.960Z,7.05
2019-01-20T09:42:52.973Z,7.27
2019-01-20T09:43:52.978Z,7.49
2019-01-20T09:44:52.978Z,7.79
2019-01-20T09:45:52.963Z,8.22
2019-01-20T09:46:52.971Z,8.36
2019-01-20T09:47:52.967Z,8.02
2019-01-20T09:48:54.850Z,8.04
2019-01-20T09:49:52.976Z,8.25
2019-01-20T09:50:52.985Z,8.54
2019-01-20T09:51:53.002Z,8.73
2019-01-20T09:52:53.865Z,8.75
2019-01-20T09:53:53.009Z,8.88
2019-01-20T09:54:52.996Z,9.15
2019-01-20T09:55:53.001Z,9.13
2019-01-20T09:56:53.042Z,9.42
2019-01-20T09:57:53.019Z,9.81
2019-01-20T09:58:53.017Z,9.83
2019-01-20T09:59:53.042Z,9.94
2019-01-20T10:00:53.036Z,9.58
2019-01-20T10:01:53.035Z,9.28
2019-01-20T10:02:53.040Z,9.02
2019-01-20T10:03:53.051Z,9.01
2019-01-20T10:04:53.158Z,9.09
2019-01-20T10:05:53.058Z,9.42
2019-01-20T10:06:53.064Z,9.31
2019-01-20T10:07:53.073Z,9.21
2019-01-20T10:08:53.085Z,9.18
2019-01-20T10:09:53.084Z,8.87
2019-01-20T10:10:53.096Z,8.60
2019-01-20T10:11:53.097Z,8.75
2019-01-20T10:12:53.115Z,8.86
2019-01-20T10:13:54.911Z,9.32
2019-01-20T10:14:53.128Z,9.76
2019-01-20T10:15:53.128Z,10.00
2019-01-20T10:16:53.135Z,10.12
2019-01-20T10:17:53.142Z,10.30
2019-01-20T10:18:53.148Z,10.55
2019-01-20T10:19:53.173Z,10.55
2019-01-20T10:20:53.175Z,10.04
2019-01-20T10:21:53.172Z,9.35
2019-01-20T10:22:53.962Z,9.39
2019-01-20T10:23:53.267Z,9.35
2019-01-20T10:24:53.198Z,9.50
2019-01-20T10:25:53.211Z,9.73
2019-01-20T10:26:53.207Z,9.83
2019-01-20T10:27:53.234Z,9.64
2019-01-20T10:28:53.271Z,9.27
2019-01-20T10:30:46.361Z,8.88
2019-01-20T10:31:46.390Z,8.72
2019-01-20T10:33:42.856Z,8.57
2019-01-20T10:34:39.775Z,8.47
2019-01-20T10:36:33.518Z,8.32
2019-01-20T10:37:33.525Z,8.00
2019-01-20T10:39:27.073Z,7.42
2019-01-20T10:40:27.046Z,7.15
2019-01-20T10:42:20.722Z,6.46
2019-01-20T10:43:21.528Z,5.98
2019-01-20T10:45:13.666Z,5.13
2019-01-20T10:46:13.318Z,4.88
2019-01-20T10:47:14.830Z,4.72
2019-01-20T10:48:24.246Z,4.88
2019-01-20T10:49:16.846Z,5.19
2019-01-20T10:50:13.614Z,5.19
2019-01-20T10:51:17.587Z,4.84
2019-01-20T10:52:22.173Z,4.79
2019-01-20T10:54:09.095Z,4.50
2019-01-20T10:55:08.686Z,4.79
2019-01-20T10:56:08.106Z,4.50
2019-01-20T10:57:08.148Z,4.46
2019-01-20T10:58:07.962Z,4.36
2019-01-20T10:59:08.213Z,3.85
2019-01-20T11:00:07.980Z,3.62
2019-01-20T11:01:08.290Z,3.64
2019-01-20T11:02:08.056Z,3.79
2019-01-20T11:03:08.058Z,4.25
2019-01-20T11:04:08.031Z,4.28
2019-01-20T11:05:08.068Z,3.90
2019-01-20T11:06:08.085Z,3.60
2019-01-20T11:07:08.058Z,3.40
2019-01-20T11:08:10.742Z,3.23
2019-01-20T11:09:08.142Z,3.27
2019-01-20T11:10:08.054Z,3.24
2019-01-20T11:11:08.372Z,3.09
2019-01-20T11:12:10.916Z,2.89
2019-01-20T11:13:09.992Z,2.82
2019-01-20T11:14:09.653Z,2.94
2019-01-20T11:15:09.865Z,2.89
2019-01-20T11:16:08.071Z,3.06
2019-01-20T11:17:08.084Z,2.91
2019-01-20T11:18:08.090Z,3.07
2019-01-20T11:19:08.116Z,2.94
2019-01-20T11:20:08.079Z,2.97
2019-01-20T11:21:08.088Z,3.07
2019-01-20T11:22:08.080Z,2.79
2019-01-20T11:23:08.082Z,2.73
2019-01-20T11:24:08.064Z,2.85
2019-01-20T11:25:09.822Z,2.76
2019-01-20T11:26:08.078Z,2.88
2019-01-20T11:27:08.071Z,2.87
2019-01-20T11:28:08.145Z,2.84
2019-01-20T11:29:08.852Z,2.84
2019-01-20T11:30:08.041Z,2.71
2019-01-20T11:31:08.060Z,2.56
2019-01-20T11:32:08.039Z,2.16
2019-01-20T11:33:08.037Z,1.97
2019-01-20T11:34:08.204Z,1.78
2019-01-20T11:35:08.040Z,1.61
2019-01-20T11:36:08.061Z,1.52
2019-01-20T11:37:08.083Z,1.42
2019-01-20T11:38:08.077Z,1.40
2019-01-20T11:39:08.052Z,1.47
2019-01-20T11:40:08.745Z,1.55
2019-01-20T11:41:08.041Z,1.83
2019-01-20T11:42:08.274Z,2.02
2019-01-20T11:43:08.012Z,2.04
2019-01-20T11:44:16.684Z,2.16
2019-01-20T11:45:08.002Z,2.19
2019-01-20T11:46:15.547Z,2.01
2019-01-20T11:48:01.643Z,1.78
2019-01-20T11:49:01.726Z,1.79
2019-01-20T11:50:54.588Z,1.52
2019-01-20T11:51:54.431Z,1.36
2019-01-20T11:53:47.994Z,1.36
2019-01-20T11:54:47.883Z,1.32
2019-01-20T11:56:40.887Z,1.54
2019-01-20T11:57:40.644Z,1.52
2019-01-20T11:59:33.677Z,1.34
2019-01-20T12:00:33.462Z,1.36
2019-01-20T12:02:26.527Z,1.57
2019-01-20T12:03:26.523Z,1.57
2019-01-20T12:05:23.068Z,1.68
2019-01-20T12:06:19.685Z,1.68
2019-01-20T12:07:19.913Z,1.65
2019-01-20T12:08:19.638Z,1.58
2019-01-20T12:09:19.664Z,1.58
2019-01-20T12:10:19.624Z,1.65
2019-01-20T12:11:19.626Z,1.52
2019-01-20T12:12:19.623Z,1.47
2019-01-20T12:13:19.615Z,1.51
2019-01-20T12:14:24.028Z,1.29
2019-01-20T12:15:19.594Z,1.10
2019-01-20T12:16:19.642Z,1.04
2019-01-20T12:17:19.574Z,1.00
2019-01-20T12:18:19.588Z,0.76
2019-01-20T12:19:19.580Z,0.68
2019-01-20T12:20:19.575Z,0.49
2019-01-20T12:21:19.574Z,0.46
2019-01-20T12:22:19.577Z,0.41
2019-01-20T12:23:19.579Z,0.25
2019-01-20T12:24:19.627Z,0.23
2019-01-20T12:25:27.029Z,0.28
2019-01-20T12:27:13.291Z,0.21
2019-01-20T12:28:13.138Z,0.27
2019-01-20T12:30:06.772Z,0.25
2019-01-20T12:31:06.504Z,0.33
2019-01-20T12:33:00.651Z,0.43
2019-01-20T12:34:00.647Z,0.43
2019-01-20T12:35:54.294Z,0.45
2019-01-20T12:36:53.832Z,0.39
2019-01-20T12:38:46.896Z,0.34
2019-01-20T12:39:46.789Z,0.42
2019-01-20T12:41:40.816Z,0.30
2019-01-20T12:42:40.651Z,0.30
2019-01-20T12:44:33.947Z,0.24
2019-01-20T12:45:33.740Z,0.28
2019-01-20T12:47:28.720Z,0.31
2019-01-20T12:48:27.511Z,0.21
2019-01-20T12:50:20.550Z,0.23
2019-01-20T12:51:20.442Z,0.20
2019-01-20T12:53:14.160Z,0.20
2019-01-20T12:54:13.898Z,0.20
2019-01-20T12:56:07.568Z,0.20
2019-01-20T12:57:07.328Z,0.23
2019-01-20T12:59:00.837Z,0.12
2019-01-20T13:00:00.765Z,0.18
2019-01-20T13:01:00.754Z,0.21
2019-01-20T13:02:01.132Z,0.23
2019-01-20T13:03:00.726Z,0.24
2019-01-20T13:04:00.678Z,0.21
2019-01-20T13:05:00.653Z,0.23
2019-01-20T13:06:00.677Z,0.24
2019-01-20T13:07:00.646Z,0.21
2019-01-20T13:08:00.656Z,0.23
2019-01-20T13:09:00.646Z,0.33
2019-01-20T13:10:00.641Z,0.36
2019-01-20T13:11:00.632Z,0.21
2019-01-20T13:12:00.604Z,0.24
2019-01-20T13:13:00.600Z,0.39
2019-01-20T13:14:00.581Z,0.38
2019-01-20T13:15:00.606Z,0.39
2019-01-20T13:16:00.600Z,0.31
2019-01-20T13:17:00.598Z,0.39
2019-01-20T13:18:00.551Z,0.39
2019-01-20T13:19:00.559Z,0.36
2019-01-20T13:20:00.529Z,0.36
2019-01-20T13:21:00.581Z,0.39
2019-01-20T13:22:00.583Z,0.43